Time;durP1;ratioP1;P1;durP2;ratioP2;P2;SDS_P1;SDS_P2;PMS_P1;PMS_P2;Temp;Humidity;BMP_temperature;BMP_pressure;BME280_temperature;BME280_humidity;BME280_pressure;Samples;Min_cycle;Max_cycle;Signal;HPM_P1;HPM_P2
2022/07/29 00:00:50;;;;;;;6.45;2.30;;;;;;;;;;5053667;28;20135;-64
2022/07/29 00:03:16;;;;;;;7.55;2.65;;;;;;;;;;5053213;28;20062;-64
2022/07/29 00:05:42;;;;;;;6.63;2.30;;;;;;;;;;5053705;28;20163;-64
2022/07/29 00:08:08;;;;;;;7.68;2.25;;;;;;;;;;5053498;28;20064;-63
2022/07/29 00:10:35;;;;;;;9.00;2.40;;;;;;;;;;5035966;28;20504;-64
2022/07/29 00:13:01;;;;;;;8.45;2.65;;;;;;;;;;5053911;28;20055;-64
2022/07/29 00:15:27;;;;;;;9.70;2.60;;;;;;;;;;5053441;28;20084;-64
2022/07/29 00:17:53;;;;;;;8.98;2.55;;;;;;;;;;5053729;28;20049;-64
2022/07/29 00:20:19;;;;;;;9.13;2.60;;;;;;;;;;5053353;28;20052;-64
2022/07/29 00:22:45;;;;;;;9.10;2.60;;;;;;;;;;5053376;28;20095;-63
2022/07/29 00:25:12;;;;;;;8.25;2.70;;;;;;;;;;5053209;28;20489;-64
2022/07/29 00:27:38;;;;;;;7.18;2.83;;;;;;;;;;5053288;28;20051;-63
2022/07/29 00:30:05;;;;;;;7.40;2.50;;;;;;;;;;5053612;28;20084;-64
2022/07/29 00:32:31;;;;;;;9.80;2.50;;;;;;;;;;5053308;28;20128;-64
2022/07/29 00:37:42;;;;;;;10.48;2.90;;;;;;;;;;5053932;28;20064;-64
2022/07/29 00:40:08;;;;;;;8.95;2.38;;;;;;;;;;5053537;28;20053;-63
2022/07/29 00:42:34;;;;;;;;;;;;;;;;;;5053778;28;20435;-64
2022/07/29 00:45:00;;;;;;;8.93;2.75;;;;;;;;;;5052736;28;19921;-63
2022/07/29 00:47:26;;;;;;;6.82;2.30;;;;;;;;;;5053595;28;20041;-63
2022/07/29 00:49:52;;;;;;;9.65;3.28;;;;;;;;;;5053131;28;20049;-65
2022/07/29 00:52:18;;;;;;;8.95;2.97;;;;;;;;;;5053513;28;20049;-64
2022/07/29 00:54:44;;;;;;;9.20;2.75;;;;;;;;;;5052980;28;20049;-65
2022/07/29 00:57:10;;;;;;;9.60;2.70;;;;;;;;;;5053027;28;20053;-64
2022/07/29 00:59:36;;;;;;;7.75;2.50;;;;;;;;;;5052941;28;20052;-64
2022/07/29 01:02:03;;;;;;;7.20;2.58;;;;;;;;;;5052923;28;20548;-64
2022/07/29 01:04:29;;;;;;;7.22;2.50;;;;;;;;;;5052944;28;20056;-63
2022/07/29 01:06:55;;;;;;;8.65;2.70;;;;;;;;;;5052908;28;20041;-64
2022/07/29 01:09:21;;;;;;;;;;;;;;;;;;5053341;28;20378;-64
2022/07/29 01:11:48;;;;;;;10.30;2.95;;;;;;;;;;5053506;28;19927;-64
2022/07/29 01:14:15;;;;;;;10.80;2.92;;;;;;;;;;5053198;28;20437;-64
2022/07/29 01:16:52;;;;;;;8.35;2.50;;;;;;;;;;5055099;28;20127;-64
2022/07/29 01:19:34;;;;;;;7.82;2.40;;;;;;;;;;5057204;28;20045;-63
2022/07/29 01:22:02;;;;;;;10.02;2.75;;;;;;;;;;5056328;28;20400;-64
2022/07/29 01:24:40;;;;;;;9.55;3.00;;;;;;;;;;5056961;28;20048;-63
2022/07/29 01:27:19;;;;;;;7.70;2.50;;;;;;;;;;5056566;28;20088;-63
2022/07/29 01:29:47;;;;;;;7.13;2.53;;;;;;;;;;5057025;28;20056;-64
2022/07/29 01:32:20;;;;;;;8.15;2.90;;;;;;;;;;5056362;28;20048;-64
2022/07/29 01:34:55;;;;;;;8.55;2.33;;;;;;;;;;5056488;28;20065;-64
2022/07/29 01:37:25;;;;;;;7.72;2.60;;;;;;;;;;5055642;28;20088;-64
2022/07/29 01:39:52;;;;;;;9.98;2.80;;;;;;;;;;5056282;28;20443;-63
2022/07/29 01:42:37;;;;;;;9.13;2.50;;;;;;;;;;5055889;28;20493;-64
2022/07/29 01:45:09;;;;;;;6.82;2.22;;;;;;;;;;5056102;28;20051;-64
2022/07/29 01:47:47;;;;;;;8.75;2.67;;;;;;;;;;5038906;28;20102;-64
2022/07/29 01:50:16;;;;;;;11.95;2.80;;;;;;;;;;5056025;28;20060;-63
2022/07/29 01:52:48;;;;;;;7.75;2.53;;;;;;;;;;5056249;28;20049;-64
2022/07/29 01:55:16;;;;;;;10.95;2.90;;;;;;;;;;5056137;28;20056;-66
2022/07/29 01:57:43;;;;;;;9.80;2.88;;;;;;;;;;5055976;28;20053;-64
2022/07/29 02:00:09;;;;;;;6.78;2.25;;;;;;;;;;5055933;28;20044;-64
2022/07/29 02:02:37;;;;;;;8.02;2.80;;;;;;;;;;5055920;28;20124;-64
2022/07/29 02:05:06;;;;;;;12.68;3.05;;;;;;;;;;5054463;28;20102;-65
2022/07/29 02:07:33;;;;;;;9.43;2.70;;;;;;;;;;5055813;28;20044;-65
2022/07/29 02:10:00;;;;;;;9.18;2.55;;;;;;;;;;5056163;28;20059;-64
2022/07/29 02:12:28;;;;;;;10.80;3.17;;;;;;;;;;5055981;28;20124;-65
2022/07/29 02:14:55;;;;;;;6.80;2.33;;;;;;;;;;5055561;28;20083;-64
2022/07/29 02:17:23;;;;;;;10.05;3.00;;;;;;;;;;5055534;28;20485;-64
2022/07/29 02:19:49;;;;;;;9.43;2.75;;;;;;;;;;5055498;28;20052;-64
2022/07/29 02:22:16;;;;;;;8.93;2.60;;;;;;;;;;5054281;28;20048;-64
2022/07/29 02:24:43;;;;;;;11.45;2.90;;;;;;;;;;5055422;28;20152;-65
2022/07/29 02:27:10;;;;;;;8.82;2.65;;;;;;;;;;5054998;28;20491;-65
2022/07/29 02:29:36;;;;;;;9.43;2.70;;;;;;;;;;5055294;28;20088;-64
2022/07/29 02:32:03;;;;;;;10.25;3.00;;;;;;;;;;5055292;28;20080;-64
2022/07/29 02:34:30;;;;;;;14.30;3.22;;;;;;;;;;5054994;28;20084;-64
2022/07/29 02:36:56;;;;;;;9.55;2.75;;;;;;;;;;5055630;28;20041;-64
2022/07/29 02:39:22;;;;;;;;;;;;;;;;;;5055603;28;20477;-65
2022/07/29 02:41:50;;;;;;;7.63;2.38;;;;;;;;;;5055271;28;19921;-64
2022/07/29 02:44:24;;;;;;;9.30;2.70;;;;;;;;;;5055155;28;20051;-65
2022/07/29 02:47:02;;;;;;;9.50;2.85;;;;;;;;;;5055587;28;20419;-64
2022/07/29 02:49:35;;;;;;;10.35;3.15;;;;;;;;;;5055498;28;20135;-64
2022/07/29 02:52:03;;;;;;;10.05;2.80;;;;;;;;;;5055042;28;20056;-65
2022/07/29 02:54:47;;;;;;;11.63;2.97;;;;;;;;;;5055339;28;20167;-64
2022/07/29 02:57:26;;;;;;;9.93;2.72;;;;;;;;;;5054858;28;20055;-64
2022/07/29 02:59:53;;;;;;;8.13;2.85;;;;;;;;;;5054947;28;20080;-65
2022/07/29 03:02:21;;;;;;;10.25;2.92;;;;;;;;;;5055019;28;20048;-64
2022/07/29 03:04:48;;;;;;;9.15;2.72;;;;;;;;;;5054645;28;20099;-65
2022/07/29 03:07:16;;;;;;;10.98;3.03;;;;;;;;;;5055433;28;20049;-65
2022/07/29 03:09:43;;;;;;;10.63;2.85;;;;;;;;;;5037311;28;20532;-64
2022/07/29 03:12:09;;;;;;;11.57;2.70;;;;;;;;;;5054576;28;20056;-65
2022/07/29 03:14:36;;;;;;;7.40;2.58;;;;;;;;;;5054489;28;20049;-65
2022/07/29 03:17:02;;;;;;;10.00;3.95;;;;;;;;;;5054130;28;20493;-64
2022/07/29 03:19:29;;;;;;;10.82;3.38;;;;;;;;;;5054331;28;20049;-64
2022/07/29 03:21:54;;;;;;;;;;;;;;;;;;5055283;28;20037;-65
2022/07/29 03:24:34;;;;;;;11.20;3.00;;;;;;;;;;5054420;28;20384;-64
2022/07/29 03:27:00;;;;;;;8.30;2.67;;;;;;;;;;5054261;28;20052;-65
2022/07/29 03:29:26;;;;;;;;;;;;;;;;;;5054626;28;20049;-64
2022/07/29 03:31:53;;;;;;;10.75;2.80;;;;;;;;;;5054245;28;19985;-64
2022/07/29 03:34:19;;;;;;;11.43;2.70;;;;;;;;;;5054588;28;20052;-64
2022/07/29 03:36:45;;;;;;;10.65;2.70;;;;;;;;;;5054191;28;20493;-64
2022/07/29 03:39:13;;;;;;;8.48;2.92;;;;;;;;;;5052971;28;20131;-64
2022/07/29 03:41:41;;;;;;;9.07;2.95;;;;;;;;;;5053380;28;20481;-65
2022/07/29 03:44:08;;;;;;;9.07;3.17;;;;;;;;;;5036061;28;20377;-65
2022/07/29 03:46:36;;;;;;;10.63;3.22;;;;;;;;;;5053500;28;20082;-64
2022/07/29 03:49:03;;;;;;;9.13;3.00;;;;;;;;;;5053378;28;20505;-65
2022/07/29 03:51:29;;;;;;;10.30;3.22;;;;;;;;;;5053484;28;20045;-64
2022/07/29 03:53:55;;;;;;;8.90;2.83;;;;;;;;;;5053020;28;20049;-66
2022/07/29 03:56:22;;;;;;;9.27;3.30;;;;;;;;;;5052793;28;20092;-64
2022/07/29 03:58:52;;;;;;;10.43;3.30;;;;;;;;;;5052588;28;20045;-64
2022/07/29 04:01:19;;;;;;;12.35;3.03;;;;;;;;;;5052391;28;20076;-64
2022/07/29 04:03:45;;;;;;;7.70;2.42;;;;;;;;;;5052714;28;20050;-65
2022/07/29 04:06:11;;;;;;;9.45;2.83;;;;;;;;;;5052251;28;20045;-64
2022/07/29 04:08:38;;;;;;;11.07;3.28;;;;;;;;;;5051646;28;20482;-64
2022/07/29 04:11:03;;;;;;;;;;;;;;;;;;5052595;28;20485;-65
2022/07/29 04:13:30;;;;;;;12.80;3.15;;;;;;;;;;5051986;28;19927;-64
2022/07/29 04:15:56;;;;;;;;;;;;;;;;;;5052468;28;20053;-64
2022/07/29 04:18:22;;;;;;;14.45;3.75;;;;;;;;;;5034300;28;19947;-64
2022/07/29 04:20:48;;;;;;;11.27;3.03;;;;;;;;;;5052085;28;20045;-65
2022/07/29 04:23:14;;;;;;;9.45;3.00;;;;;;;;;;5051822;28;20045;-64
2022/07/29 04:25:41;;;;;;;9.23;2.88;;;;;;;;;;5051764;28;20044;-64
2022/07/29 04:28:07;;;;;;;9.82;2.95;;;;;;;;;;5034173;28;20048;-64
2022/07/29 04:30:34;;;;;;;9.88;2.90;;;;;;;;;;5051493;28;20501;-64
2022/07/29 04:33:00;;;;;;;9.60;3.42;;;;;;;;;;5051785;28;20083;-64
2022/07/29 04:35:27;;;;;;;10.73;3.65;;;;;;;;;;5051717;28;20145;-64
2022/07/29 04:37:53;;;;;;;10.18;3.00;;;;;;;;;;5051971;28;20052;-64
2022/07/29 04:40:19;;;;;;;11.75;3.53;;;;;;;;;;5051870;28;20045;-64
2022/07/29 04:42:45;;;;;;;9.57;3.13;;;;;;;;;;5051705;28;20128;-65
2022/07/29 04:45:11;;;;;;;10.55;3.10;;;;;;;;;;5051893;28;20053;-65
2022/07/29 04:47:37;;;;;;;9.82;3.08;;;;;;;;;;5051869;28;20048;-64
2022/07/29 04:50:05;;;;;;;;;;;;;;;;;;5053558;28;20060;-64
2022/07/29 04:52:31;;;;;;;10.25;2.92;;;;;;;;;;5056154;28;19921;-65
2022/07/29 04:54:57;;;;;;;8.70;2.92;;;;;;;;;;5055595;28;20045;-66
2022/07/29 04:57:23;;;;;;;9.32;3.10;;;;;;;;;;5055602;28;20480;-63
2022/07/29 04:59:49;;;;;;;8.48;2.88;;;;;;;;;;5055459;28;20045;-65
2022/07/29 05:02:15;;;;;;;10.07;3.42;;;;;;;;;;5055290;28;20445;-65
2022/07/29 05:04:41;;;;;;;10.23;3.08;;;;;;;;;;5055205;28;20457;-65
2022/07/29 05:07:07;;;;;;;7.30;2.80;;;;;;;;;;5054854;28;20123;-65
2022/07/29 05:09:33;;;;;;;8.13;2.90;;;;;;;;;;5055279;28;20040;-67
2022/07/29 05:11:59;;;;;;;13.10;3.03;;;;;;;;;;5054944;28;20049;-66
2022/07/29 05:14:25;;;;;;;10.43;3.00;;;;;;;;;;5055105;28;20049;-66
2022/07/29 05:16:52;;;;;;;15.65;3.42;;;;;;;;;;5055004;28;20106;-67
2022/07/29 05:19:18;;;;;;;12.02;3.20;;;;;;;;;;5055018;28;20087;-65
2022/07/29 05:21:45;;;;;;;9.07;2.95;;;;;;;;;;5054986;28;20124;-66
2022/07/29 05:24:11;;;;;;;12.85;3.42;;;;;;;;;;5055050;28;20079;-65
2022/07/29 05:26:37;;;;;;;12.32;3.05;;;;;;;;;;5053869;28;20084;-64
2022/07/29 05:29:03;;;;;;;11.48;2.70;;;;;;;;;;5037439;28;20045;-65
2022/07/29 05:31:29;;;;;;;8.85;3.08;;;;;;;;;;5038239;28;20441;-66
2022/07/29 05:33:55;;;;;;;11.23;3.85;;;;;;;;;;5054531;28;20578;-65
2022/07/29 05:36:21;;;;;;;9.63;3.33;;;;;;;;;;5055273;28;20063;-65
2022/07/29 05:38:47;;;;;;;8.48;3.00;;;;;;;;;;5054680;28;20059;-65
2022/07/29 05:41:13;;;;;;;12.13;3.33;;;;;;;;;;5053638;28;20053;-69
2022/07/29 05:43:39;;;;;;;9.60;3.45;;;;;;;;;;5054839;28;20088;-65
2022/07/29 05:46:05;;;;;;;10.75;3.28;;;;;;;;;;5054852;28;20107;-66
2022/07/29 05:48:32;;;;;;;7.78;2.83;;;;;;;;;;5054407;28;20476;-66
2022/07/29 05:50:58;;;;;;;9.80;2.88;;;;;;;;;;5055103;28;20055;-66
2022/07/29 05:53:24;;;;;;;9.48;3.10;;;;;;;;;;5054876;28;20118;-66
2022/07/29 05:55:50;;;;;;;11.35;2.78;;;;;;;;;;5054519;28;20045;-66
2022/07/29 05:58:16;;;;;;;10.95;2.83;;;;;;;;;;5054519;28;20106;-69
2022/07/29 06:00:42;;;;;;;14.02;3.38;;;;;;;;;;5054646;28;20193;-64
2022/07/29 06:03:08;;;;;;;8.48;3.03;;;;;;;;;;5052434;28;20055;-64
2022/07/29 06:05:34;;;;;;;9.07;2.97;;;;;;;;;;5054452;28;20053;-66
2022/07/29 06:08:00;;;;;;;9.55;3.03;;;;;;;;;;5054029;28;20480;-65
2022/07/29 06:10:26;;;;;;;10.90;3.08;;;;;;;;;;5054230;28;20515;-66
2022/07/29 06:12:52;;;;;;;8.68;3.00;;;;;;;;;;5052917;28;20127;-65
2022/07/29 06:15:19;;;;;;;9.85;3.30;;;;;;;;;;5054158;28;20069;-65
2022/07/29 06:17:45;;;;;;;13.10;3.40;;;;;;;;;;5036544;28;20040;-66
2022/07/29 06:20:11;;;;;;;9.82;2.97;;;;;;;;;;5054119;28;20051;-66
2022/07/29 06:22:37;;;;;;;8.85;2.80;;;;;;;;;;5054162;28;20037;-66
2022/07/29 06:25:03;;;;;;;10.57;3.03;;;;;;;;;;5053950;28;20124;-65
2022/07/29 06:27:29;;;;;;;10.63;3.08;;;;;;;;;;5053907;28;20099;-65
2022/07/29 06:29:55;;;;;;;;;;;;;;;;;;5054164;28;20092;-64
2022/07/29 06:32:22;;;;;;;10.52;3.05;;;;;;;;;;5053900;28;19925;-65
2022/07/29 06:34:48;;;;;;;;;;;;;;;;;;5054489;28;20179;-64
2022/07/29 06:37:14;;;;;;;13.85;3.17;;;;;;;;;;5053299;28;19920;-65
2022/07/29 06:39:40;;;;;;;9.27;3.42;;;;;;;;;;5053614;28;20056;-74
2022/07/29 06:42:06;;;;;;;11.63;3.10;;;;;;;;;;5054028;28;20045;-66
2022/07/29 06:44:35;;;;;;;13.35;3.20;;;;;;;;;;5053619;28;20064;-65
2022/07/29 06:47:01;;;;;;;10.35;3.25;;;;;;;;;;5053679;28;20049;-65
2022/07/29 06:49:27;;;;;;;;;;;;;;;;;;5053877;28;20102;-65
2022/07/29 06:51:54;;;;;;;13.82;3.13;;;;;;;;;;5053379;28;19924;-63
2022/07/29 06:54:20;;;;;;;12.07;3.70;;;;;;;;;;5052089;28;20127;-64
2022/07/29 06:56:46;;;;;;;10.40;2.78;;;;;;;;;;5053523;28;20049;-65
2022/07/29 06:59:12;;;;;;;;;;;;;;;;;;5053470;28;20084;-66
2022/07/29 07:01:39;;;;;;;13.38;3.25;;;;;;;;;;5053035;28;19964;-71
2022/07/29 07:04:05;;;;;;;10.32;3.10;;;;;;;;;;5053246;28;20131;-65
2022/07/29 07:06:31;;;;;;;11.98;3.05;;;;;;;;;;5051891;28;20063;-64
2022/07/29 07:08:57;;;;;;;10.55;3.05;;;;;;;;;;5052991;28;20484;-64
2022/07/29 07:11:23;;;;;;;10.80;3.17;;;;;;;;;;5053005;28;20049;-65
2022/07/29 07:13:49;;;;;;;;;;;;;;;;;;5052609;28;20044;-64
2022/07/29 07:16:15;;;;;;;9.85;3.10;;;;;;;;;;5053016;28;20225;-64
2022/07/29 07:18:41;;;;;;;10.75;3.38;;;;;;;;;;5051703;28;20041;-67
2022/07/29 07:21:08;;;;;;;11.70;3.60;;;;;;;;;;5053163;28;20491;-67
2022/07/29 07:23:34;;;;;;;11.40;3.42;;;;;;;;;;5052798;28;20049;-66
2022/07/29 07:26:00;;;;;;;;;;;;;;;;;;5053115;28;20150;-65
2022/07/29 07:28:26;;;;;;;10.63;3.53;;;;;;;;;;5052645;28;19971;-65
2022/07/29 07:30:52;;;;;;;8.57;3.10;;;;;;;;;;5052493;28;20045;-64
2022/07/29 07:33:18;;;;;;;;;;;;;;;;;;5052871;28;20543;-65
2022/07/29 07:35:44;;;;;;;10.45;3.03;;;;;;;;;;5052693;28;19921;-65
2022/07/29 07:38:10;;;;;;;;;;;;;;;;;;5053559;28;20045;-65
2022/07/29 07:40:36;;;;;;;12.07;3.33;;;;;;;;;;5052907;28;19960;-64
2022/07/29 07:43:03;;;;;;;14.30;3.30;;;;;;;;;;5034675;28;20053;-64
2022/07/29 07:45:28;;;;;;;;;;;;;;;;;;5051819;28;20055;-64
2022/07/29 07:47:55;;;;;;;12.57;3.08;;;;;;;;;;5035273;28;19928;-65
2022/07/29 07:50:21;;;;;;;9.75;3.53;;;;;;;;;;5052747;28;20049;-66
2022/07/29 07:52:51;;;;;;;13.70;3.30;;;;;;;;;;5052957;28;20102;-65
2022/07/29 07:55:17;;;;;;;15.82;3.70;;;;;;;;;;5052786;28;20090;-65
2022/07/29 07:57:44;;;;;;;;;;;;;;;;;;5053803;28;20081;-64
2022/07/29 08:00:10;;;;;;;10.00;3.40;;;;;;;;;;5053395;28;19932;-64
2022/07/29 08:02:36;;;;;;;16.55;3.70;;;;;;;;;;5052902;28;20072;-66
2022/07/29 08:05:02;;;;;;;9.52;3.33;;;;;;;;;;5052186;28;20060;-64
2022/07/29 08:07:29;;;;;;;;;;;;;;;;;;5052655;28;20181;-64
2022/07/29 08:09:55;;;;;;;13.60;3.47;;;;;;;;;;5052214;28;20280;-65
2022/07/29 08:12:21;;;;;;;8.52;3.22;;;;;;;;;;5052714;28;20272;-65
2022/07/29 08:14:47;;;;;;;9.95;2.97;;;;;;;;;;5052198;28;20068;-66
2022/07/29 08:17:13;;;;;;;;;;;;;;;;;;5052450;28;20044;-65
2022/07/29 08:19:39;;;;;;;10.43;3.58;;;;;;;;;;5052108;28;19921;-65
2022/07/29 08:22:05;;;;;;;10.63;3.05;;;;;;;;;;5051971;28;20492;-66
2022/07/29 08:24:44;;;;;;;10.85;3.40;;;;;;;;;;5052436;28;20141;-66
2022/07/29 08:27:10;;;;;;;11.27;3.28;;;;;;;;;;5052836;28;20044;-65
2022/07/29 08:29:36;;;;;;;9.20;3.17;;;;;;;;;;5052685;28;20132;-65
2022/07/29 08:32:02;;;;;;;;;;;;;;;;;;5034656;28;20144;-64
2022/07/29 08:34:29;;;;;;;10.90;3.35;;;;;;;;;;5052003;28;20007;-64
2022/07/29 08:36:55;;;;;;;10.50;3.75;;;;;;;;;;5052003;28;20439;-64
2022/07/29 08:39:22;;;;;;;13.70;3.70;;;;;;;;;;5033844;28;20098;-65
2022/07/29 08:41:48;;;;;;;13.20;3.45;;;;;;;;;;5034828;28;20049;-64
2022/07/29 08:44:16;;;;;;;12.95;3.90;;;;;;;;;;5052833;28;20045;-64
2022/07/29 08:46:43;;;;;;;15.48;3.53;;;;;;;;;;5052862;28;20114;-65
2022/07/29 08:49:09;;;;;;;13.93;3.58;;;;;;;;;;5051720;28;20041;-64
2022/07/29 08:51:36;;;;;;;15.90;3.78;;;;;;;;;;5051555;28;20041;-64
2022/07/29 08:54:03;;;;;;;11.48;3.28;;;;;;;;;;5051926;28;20146;-64
2022/07/29 08:56:29;;;;;;;11.68;3.60;;;;;;;;;;5051884;28;20068;-64
2022/07/29 08:58:57;;;;;;;13.02;3.60;;;;;;;;;;5051973;28;20048;-64
2022/07/29 09:01:24;;;;;;;15.07;3.75;;;;;;;;;;5051641;28;20479;-66
2022/07/29 09:03:50;;;;;;;11.43;3.67;;;;;;;;;;5051679;28;20045;-65
2022/07/29 09:06:16;;;;;;;;;;;;;;;;;;5052997;28;20088;-65
2022/07/29 09:08:42;;;;;;;10.65;3.50;;;;;;;;;;5052090;28;19983;-65
2022/07/29 09:11:09;;;;;;;12.32;3.63;;;;;;;;;;5051608;28;20145;-64
2022/07/29 09:13:35;;;;;;;10.75;3.20;;;;;;;;;;5051914;28;20133;-64
2022/07/29 09:16:02;;;;;;;18.10;3.85;;;;;;;;;;5051552;28;20049;-65
2022/07/29 09:18:34;;;;;;;9.52;3.42;;;;;;;;;;5051575;28;20049;-64
2022/07/29 09:24:00;;;;;;;15.38;4.22;;;;;;;;;;5051977;28;20135;-64
2022/07/29 09:26:30;;;;;;;12.57;3.90;;;;;;;;;;5051303;28;20045;-65
2022/07/29 09:28:57;;;;;;;10.93;3.45;;;;;;;;;;5051477;28;20048;-65
2022/07/29 09:31:32;;;;;;;10.90;3.70;;;;;;;;;;5051264;28;20076;-66
2022/07/29 09:34:00;;;;;;;13.98;4.35;;;;;;;;;;5051124;28;20099;-65
2022/07/29 09:36:26;;;;;;;12.23;4.00;;;;;;;;;;5051329;28;20057;-65
2022/07/29 09:38:59;;;;;;;11.27;3.90;;;;;;;;;;5055083;28;20159;-64
2022/07/29 09:41:26;;;;;;;11.75;3.70;;;;;;;;;;5054453;28;20425;-65
2022/07/29 09:43:56;;;;;;;12.05;4.20;;;;;;;;;;5054824;28;20104;-64
2022/07/29 09:46:22;;;;;;;13.40;4.00;;;;;;;;;;5053557;28;20052;-64
2022/07/29 09:49:11;;;;;;;10.18;3.70;;;;;;;;;;5054671;28;20056;-65
2022/07/29 09:51:37;;;;;;;11.40;3.63;;;;;;;;;;5054786;28;20477;-64
2022/07/29 09:54:26;;;;;;;13.15;4.00;;;;;;;;;;5054982;28;20070;-64
2022/07/29 09:56:52;;;;;;;11.75;4.00;;;;;;;;;;5055514;28;20217;-65
2022/07/29 09:59:20;;;;;;;12.52;3.70;;;;;;;;;;5054492;28;20045;-64
2022/07/29 10:01:46;;;;;;;12.90;3.50;;;;;;;;;;5054183;28;20057;-65
2022/07/29 10:04:12;;;;;;;13.13;3.53;;;;;;;;;;5036588;28;20053;-64
2022/07/29 10:06:38;;;;;;;;;;;;;;;;;;5055163;28;20048;-64
2022/07/29 10:09:09;;;;;;;11.45;4.10;;;;;;;;;;5054671;28;20311;-64
2022/07/29 10:11:35;;;;;;;13.00;4.18;;;;;;;;;;5054839;28;20049;-64
2022/07/29 10:14:01;;;;;;;;;;;;;;;;;;5055359;28;20084;-66
2022/07/29 10:16:32;;;;;;;12.52;3.95;;;;;;;;;;5036730;28;19920;-64
2022/07/29 10:18:58;;;;;;;14.45;4.03;;;;;;;;;;5054291;28;20148;-65
2022/07/29 10:21:25;;;;;;;11.93;3.80;;;;;;;;;;5054126;28;20041;-65
2022/07/29 10:23:51;;;;;;;12.43;3.90;;;;;;;;;;5054154;28;20543;-65
2022/07/29 10:26:18;;;;;;;13.00;3.58;;;;;;;;;;5054121;28;20124;-63
2022/07/29 10:28:44;;;;;;;13.30;4.07;;;;;;;;;;5054056;28;20053;-64
2022/07/29 10:31:13;;;;;;;15.40;3.55;;;;;;;;;;5053080;28;20088;-64
2022/07/29 10:33:42;;;;;;;14.07;4.13;;;;;;;;;;5054706;28;20041;-64
2022/07/29 10:36:23;;;;;;;11.77;3.60;;;;;;;;;;5052879;28;20053;-64
2022/07/29 10:38:49;;;;;;;11.70;3.65;;;;;;;;;;5053973;28;20055;-64
2022/07/29 10:41:39;;;;;;;9.20;3.60;;;;;;;;;;5053775;28;20045;-64
2022/07/29 10:44:19;;;;;;;13.60;3.97;;;;;;;;;;5054191;28;20056;-65
2022/07/29 10:46:45;;;;;;;11.52;3.72;;;;;;;;;;5053875;28;20135;-64
2022/07/29 10:49:14;;;;;;;10.98;4.00;;;;;;;;;;5053923;28;20059;-64
2022/07/29 10:52:00;;;;;;;15.73;3.90;;;;;;;;;;5054161;28;20048;-64
2022/07/29 10:54:35;;;;;;;14.45;3.97;;;;;;;;;;5053455;28;20382;-65
2022/07/29 10:57:16;;;;;;;13.82;3.90;;;;;;;;;;5053565;28;20053;-65
2022/07/29 10:59:43;;;;;;;11.55;3.88;;;;;;;;;;5053245;28;20053;-65
2022/07/29 11:02:28;;;;;;;12.27;4.03;;;;;;;;;;5053839;28;20381;-65
2022/07/29 11:04:54;;;;;;;15.73;4.82;;;;;;;;;;5053412;28;20485;-65
2022/07/29 11:07:20;;;;;;;13.55;4.13;;;;;;;;;;5053559;28;20136;-64
2022/07/29 11:10:06;;;;;;;12.05;4.45;;;;;;;;;;5051974;28;20084;-65
2022/07/29 11:12:37;;;;;;;12.23;4.68;;;;;;;;;;5054154;28;20049;-65
2022/07/29 11:15:05;;;;;;;14.05;4.35;;;;;;;;;;5053789;28;20055;-65
2022/07/29 11:17:50;;;;;;;13.10;4.30;;;;;;;;;;5053894;28;20049;-65
2022/07/29 11:20:31;;;;;;;11.68;4.60;;;;;;;;;;5053429;28;20408;-65
2022/07/29 11:22:57;;;;;;;12.38;4.70;;;;;;;;;;5052996;28;20047;-64
2022/07/29 11:25:23;;;;;;;;;;;;;;;;;;5053603;28;20504;-64
2022/07/29 11:27:50;;;;;;;11.82;4.20;;;;;;;;;;5053131;28;19921;-65
2022/07/29 11:30:16;;;;;;;16.30;5.05;;;;;;;;;;5051667;28;20079;-64
2022/07/29 11:32:42;;;;;;;;;;;;;;;;;;5053091;28;20106;-66
2022/07/29 11:35:11;;;;;;;14.25;4.80;;;;;;;;;;5034859;28;19979;-65
2022/07/29 11:37:37;;;;;;;14.07;4.65;;;;;;;;;;5053184;28;20099;-64
2022/07/29 11:40:03;;;;;;;;;;;;;;;;;;5053138;28;20600;-64
2022/07/29 11:42:29;;;;;;;13.48;4.75;;;;;;;;;;5052482;28;20003;-64
2022/07/29 11:44:56;;;;;;;13.13;4.40;;;;;;;;;;5052762;28;20091;-64
2022/07/29 11:47:23;;;;;;;15.73;4.60;;;;;;;;;;5052624;28;20061;-65
2022/07/29 11:49:49;;;;;;;14.13;4.60;;;;;;;;;;5035678;28;20385;-64
2022/07/29 11:52:15;;;;;;;13.60;4.75;;;;;;;;;;5053021;28;20116;-65
2022/07/29 11:54:43;;;;;;;9.88;4.53;;;;;;;;;;5052391;28;20049;-65
2022/07/29 11:57:09;;;;;;;15.32;4.60;;;;;;;;;;5053105;28;20051;-65
2022/07/29 11:59:42;;;;;;;12.35;4.28;;;;;;;;;;5052629;28;20049;-64
2022/07/29 12:02:09;;;;;;;11.30;4.05;;;;;;;;;;5052369;28;20087;-65
2022/07/29 12:04:54;;;;;;;14.98;5.15;;;;;;;;;;5052232;28;20057;-65
2022/07/29 12:07:33;;;;;;;13.02;4.82;;;;;;;;;;5052411;28;20055;-65
2022/07/29 12:10:00;;;;;;;11.65;4.05;;;;;;;;;;5052046;28;20056;-66
2022/07/29 12:12:26;;;;;;;12.27;4.57;;;;;;;;;;5052267;28;20072;-65
2022/07/29 12:14:54;;;;;;;;;;;;;;;;;;5034982;28;20049;-66
2022/07/29 12:17:27;;;;;;;13.25;4.50;;;;;;;;;;5052933;28;19928;-65
2022/07/29 12:19:53;;;;;;;12.35;4.03;;;;;;;;;;5052363;28;20100;-64
2022/07/29 12:22:29;;;;;;;12.27;4.18;;;;;;;;;;5052496;28;20052;-66
2022/07/29 12:24:56;;;;;;;12.40;4.78;;;;;;;;;;5052352;28;20052;-65
2022/07/29 12:27:23;;;;;;;18.35;3.95;;;;;;;;;;5052097;28;20056;-65
2022/07/29 12:29:56;;;;;;;15.43;4.38;;;;;;;;;;5051865;28;20049;-66
2022/07/29 12:32:23;;;;;;;13.20;4.22;;;;;;;;;;5051967;28;20045;-66
2022/07/29 12:34:49;;;;;;;12.57;4.25;;;;;;;;;;5051894;28;20126;-65
2022/07/29 12:37:16;;;;;;;12.55;4.10;;;;;;;;;;5052193;28;20092;-65
2022/07/29 12:39:42;;;;;;;15.18;4.30;;;;;;;;;;5052180;28;20134;-64
2022/07/29 12:42:08;;;;;;;;;;;;;;;;;;5052253;28;20480;-65
2022/07/29 12:44:51;;;;;;;13.80;4.05;;;;;;;;;;5034680;28;19967;-64
2022/07/29 12:47:20;;;;;;;12.45;3.42;;;;;;;;;;5053153;28;20392;-65
2022/07/29 12:49:46;;;;;;;17.48;3.63;;;;;;;;;;5053029;28;20135;-65
2022/07/29 12:52:24;;;;;;;12.20;3.92;;;;;;;;;;5052275;28;20053;-65
2022/07/29 12:54:50;;;;;;;14.63;3.70;;;;;;;;;;5052342;28;20370;-65
2022/07/29 12:57:17;;;;;;;17.45;3.80;;;;;;;;;;5051422;28;20041;-65
2022/07/29 12:59:42;;;;;;;;;;;;;;;;;;5052579;28;20049;-64
2022/07/29 13:02:21;;;;;;;12.15;4.00;;;;;;;;;;5034424;28;19944;-65
2022/07/29 13:04:56;;;;;;;10.10;3.78;;;;;;;;;;5051665;28;20139;-64
2022/07/29 13:07:26;;;;;;;15.00;4.00;;;;;;;;;;5052536;28;20513;-64
2022/07/29 13:09:53;;;;;;;13.75;3.83;;;;;;;;;;5052078;28;20053;-65
2022/07/29 13:12:20;;;;;;;12.95;3.47;;;;;;;;;;5055312;28;20036;-65
2022/07/29 13:14:50;;;;;;;11.35;3.25;;;;;;;;;;5055603;28;20143;-66
2022/07/29 13:17:20;;;;;;;11.65;3.67;;;;;;;;;;5055391;28;20051;-65
2022/07/29 13:19:53;;;;;;;11.07;3.30;;;;;;;;;;5056134;28;20053;-64
2022/07/29 13:22:20;;;;;;;11.88;3.58;;;;;;;;;;5055608;28;20044;-65
2022/07/29 13:24:57;;;;;;;12.43;4.20;;;;;;;;;;5037833;28;20049;-65
2022/07/29 13:27:24;;;;;;;12.75;4.28;;;;;;;;;;5056332;28;20467;-64
2022/07/29 13:29:52;;;;;;;14.52;4.20;;;;;;;;;;5056141;28;20051;-64
2022/07/29 13:32:18;;;;;;;12.57;3.92;;;;;;;;;;5056619;28;20048;-65
2022/07/29 13:34:44;;;;;;;14.05;3.95;;;;;;;;;;5056493;28;20104;-73
2022/07/29 13:37:10;;;;;;;;;;;;;;;;;;5057054;28;20144;-74
2022/07/29 13:39:37;;;;;;;13.52;3.72;;;;;;;;;;5055693;28;20380;-74
2022/07/29 13:42:03;;;;;;;11.95;3.83;;;;;;;;;;5056090;28;20124;-73
2022/07/29 13:44:29;;;;;;;13.55;3.90;;;;;;;;;;5055024;28;20430;-73
2022/07/29 13:46:56;;;;;;;11.35;3.47;;;;;;;;;;5038238;28;20052;-72
2022/07/29 13:49:22;;;;;;;12.15;4.03;;;;;;;;;;5054030;28;20373;-72
2022/07/29 13:51:49;;;;;;;11.82;3.65;;;;;;;;;;5055544;28;20282;-74
2022/07/29 13:54:15;;;;;;;14.10;4.00;;;;;;;;;;5055669;28;20110;-73
2022/07/29 13:56:41;;;;;;;;;;;;;;;;;;5055457;28;20049;-77
2022/07/29 13:59:07;;;;;;;12.05;3.78;;;;;;;;;;5054905;28;19928;-71
2022/07/29 14:01:34;;;;;;;11.77;4.03;;;;;;;;;;5055324;28;20045;-73
2022/07/29 14:04:00;;;;;;;13.07;3.67;;;;;;;;;;5055783;28;20049;-71
2022/07/29 14:06:26;;;;;;;;;;;;;;;;;;5055728;28;20049;-73
2022/07/29 14:08:52;;;;;;;13.27;4.38;;;;;;;;;;5055331;28;19966;-73
2022/07/29 14:11:18;;;;;;;13.98;3.65;;;;;;;;;;5055530;28;20482;-73
2022/07/29 14:13:44;;;;;;;13.18;3.70;;;;;;;;;;5054864;28;20515;-74
2022/07/29 14:16:10;;;;;;;13.07;3.80;;;;;;;;;;5055014;28;20080;-74
2022/07/29 14:18:36;;;;;;;13.98;3.42;;;;;;;;;;5054434;28;20131;-73
2022/07/29 14:21:02;;;;;;;;;;;;;;;;;;5055343;28;20072;-66
2022/07/29 14:23:28;;;;;;;10.98;3.30;;;;;;;;;;5053777;28;20356;-63
2022/07/29 14:25:54;;;;;;;;;;;;;;;;;;5054534;28;20140;-63
2022/07/29 14:28:20;;;;;;;9.68;3.05;;;;;;;;;;5054718;28;19921;-63
2022/07/29 14:30:46;;;;;;;;;;;;;;;;;;5054709;28;20045;-63
2022/07/29 14:33:12;;;;;;;14.82;2.65;;;;;;;;;;5054375;28;19924;-76
2022/07/29 14:35:39;;;;;;;12.13;3.58;;;;;;;;;;5053500;28;20496;-71
2022/07/29 14:38:05;;;;;;;13.13;3.30;;;;;;;;;;5053614;28;20497;-72
2022/07/29 14:40:31;;;;;;;;;;;;;;;;;;5054615;28;20052;-71
2022/07/29 14:42:57;;;;;;;8.73;3.10;;;;;;;;;;5053814;28;20272;-72
2022/07/29 14:45:23;;;;;;;;;;;;;;;;;;5054661;28;20049;-72
2022/07/29 14:47:50;;;;;;;13.65;3.00;;;;;;;;;;5054071;28;19925;-73
2022/07/29 14:50:18;;;;;;;10.73;3.10;;;;;;;;;;5053644;28;20479;-78
2022/07/29 14:52:44;;;;;;;10.10;3.53;;;;;;;;;;5054494;28;20143;-72
2022/07/29 14:55:10;;;;;;;;;;;;;;;;;;5054156;28;20047;-65